Latest  Newer  Older  Last 2 hours animation  Current image  Latest image 
Rain/snow radar  Infrared sat images 
Real-time lightning map

All time is UTC (add 2 hours to UTC in wintertime, 3 hours to UTC in DST for Latvia local time)

2021/10/25 16:20 EVRA 251620Z 19008KT CAVOK 06/03 Q1019 R18/090095 NOSIG
2021/10/25 16:20 EVLA 251620Z AUTO 17006KT 140V210 9999 NCD 07/04 Q1018
2021/10/25 16:20 EVVA 251620Z AUTO 19011KT 9999 FEW021 08/06 Q1017
2021/10/25 16:20 EYKA 251620Z 15008KT 120V180 CAVOK 06/01 Q1022
2021/10/25 16:20 EYPA 251620Z 16011KT CAVOK 09/03 Q1019
2021/10/25 16:20 EYSA 251620Z 18010KT CAVOK 07/02 Q1021 NOSIG
2021/10/25 16:20 EYVI 251620Z 17010KT CAVOK 05/01 Q1024 NOSIG
2021/10/25 15:20 EEKA 251520Z 21008KT 170V250 9999 OVC023 10/06 Q1014
2021/10/25 16:20 EEKE 251620Z 21012KT 9999 SCT019 OVC029 09/07 Q1016

2021/10/25 16:20 EETN 251620Z 21011KT 9999 SCT017 OVC029 09/06 Q1014 NOSIG
2021/10/25 16:20 EETU 251620Z AUTO 21009KT 9999 NCD 05/02 Q1018
   RIGA AIRPORT     EVRA               56 55N  023 58E   10   X     T          6 LV
   LIEPAJA INTL     EVLA        26406  56 31N  021 06E    4   X                8 LV
   VENTPILS         EVVA               57 21N  021 33E    6   X                8 LV
   KAUNAS           EYKA               54 54N  023 55E   77   X     T          6 LT
   PALANGA INTL     EYPA               55 55N  021 03E   10   X                6 LT
   SIAULIAI INTL    EYSA               55 54N  023 24E  135   X     T          6 LT
   VILNIUS INTL     EYVI        26730  54 38N  025 17E  197   X     T          6 LT
   KARDLA           EEKA        26116  58 59N  022 50E    4   X                8 EE
   KURESSAARE       EEKE               58 14N  022 31E    4   X                8 EE
   PARNU            EEPU               58 25N  024 28E   14   X                8 EE
   TALLINN          EETN        26038  59 24N  024 49E   40   X     T          8 EE
   TARTU            EETU               58 19N  026 41E   67   X                8 EE

cloud coverage image from sat24.com and METAR data from weather.noaa.gov